Terminal Aerodrome Forecast
Issued by NWS

Home | Current Version | Previous Version | Text Only | Print | Product List | Glossary On
Versions: 1 2 3 4 5 6 7 8 9 10 11 12
000
FTUS45 KRIW 161127
TAFJAC
TAF
KJAC 161127Z 1612/1712 02006KT P6SM VCFG SKC
     FM161700 00000KT P6SM SCT200
     FM170300 01005KT P6SM VCFG SKC
      AMD LTD TO CLD VIS AND WIND=

USA.gov is the U.S. government's official web portal to all federal, state and local government web resources and services.